Time;durP1;ratioP1;P1;durP2;ratioP2;P2;SDS_P1;SDS_P2;PMS_P1;PMS_P2;Temp;Humidity;BMP_temperature;BMP_pressure;BME280_temperature;BME280_humidity;BME280_pressure;Samples;Min_cycle;Max_cycle;Signal;HPM_P1;HPM_P2
2021/06/25 00:00:56;;;;;;;2.83;2.40;;;;;;;;;;10242928;28;20033;-67
2021/06/25 00:05:53;;;;;;;2.70;2.50;;;;;;;;;;10252172;28;20036;-67
2021/06/25 00:10:51;;;;;;;3.10;2.47;;;;;;;;;;10242905;28;20031;-67
2021/06/25 00:15:48;;;;;;;2.53;2.33;;;;;;;;;;10238036;28;20400;-67
2021/06/25 00:20:46;;;;;;;3.47;2.20;;;;;;;;;;10248117;28;20022;-67
2021/06/25 00:25:43;;;;;;;3.00;2.50;;;;;;;;;;10240801;28;20534;-67
2021/06/25 00:30:43;;;;;;;3.08;2.70;;;;;;;;;;10247485;28;20042;-67
2021/06/25 00:35:40;;;;;;;3.05;2.50;;;;;;;;;;10251258;28;20548;-67
2021/06/25 00:40:38;;;;;;;3.53;2.43;;;;;;;;;;10238659;28;20453;-67
2021/06/25 00:45:35;;;;;;;2.63;2.43;;;;;;;;;;10252550;28;20034;-68
2021/06/25 00:50:34;;;;;;;3.60;2.40;;;;;;;;;;10260305;28;20187;-67
2021/06/25 00:55:42;;;;;;;2.50;2.30;;;;;;;;;;10233962;28;20069;-67
2021/06/25 01:00:40;;;;;;;2.43;2.27;;;;;;;;;;10243789;28;20034;-67
2021/06/25 01:05:37;;;;;;;2.97;2.33;;;;;;;;;;10249397;28;20076;-67
2021/06/25 01:10:36;;;;;;;2.80;2.60;;;;;;;;;;10247752;28;20034;-67
2021/06/25 01:15:33;;;;;;;2.83;2.60;;;;;;;;;;10229219;28;20070;-66
2021/06/25 01:20:32;;;;;;;3.40;2.60;;;;;;;;;;10207837;28;20081;-67
2021/06/25 01:25:31;;;;;;;2.80;2.38;;;;;;;;;;10234377;28;20038;-67
2021/06/25 01:30:30;;;;;;;3.08;2.50;;;;;;;;;;10239569;28;20521;-67
2021/06/25 01:35:27;;;;;;;2.80;2.50;;;;;;;;;;10242691;28;20085;-67
2021/06/25 01:40:25;;;;;;;2.70;2.50;;;;;;;;;;10247541;28;20062;-66
2021/06/25 01:45:24;;;;;;;3.27;2.97;;;;;;;;;;10242610;28;20046;-66
2021/06/25 01:50:23;;;;;;;3.40;2.72;;;;;;;;;;10224493;28;20412;-67
2021/06/25 01:55:21;;;;;;;3.78;3.10;;;;;;;;;;10238110;28;20033;-67
2021/06/25 02:00:18;;;;;;;4.17;2.90;;;;;;;;;;10239410;28;20048;-67
2021/06/25 02:05:16;;;;;;;5.33;2.90;;;;;;;;;;10248608;28;20038;-67
2021/06/25 02:10:13;;;;;;;2.77;2.50;;;;;;;;;;10258446;28;20052;-67
2021/06/25 02:15:11;;;;;;;4.83;2.97;;;;;;;;;;10282566;28;20042;-66
2021/06/25 02:20:09;;;;;;;4.13;3.30;;;;;;;;;;10294612;28;20041;-67
2021/06/25 02:25:08;;;;;;;3.22;2.85;;;;;;;;;;10305632;28;20068;-67
2021/06/25 02:30:07;;;;;;;2.67;2.47;;;;;;;;;;10265827;28;20041;-67
2021/06/25 02:35:04;;;;;;;3.40;2.97;;;;;;;;;;10264607;28;20049;-67
2021/06/25 02:40:02;;;;;;;3.60;2.90;;;;;;;;;;10287909;28;20029;-66
2021/06/25 02:45:00;;;;;;;3.93;3.10;;;;;;;;;;10280948;28;20038;-67
2021/06/25 02:49:57;;;;;;;4.53;2.93;;;;;;;;;;10265070;28;20049;-66
2021/06/25 02:54:55;;;;;;;3.07;2.80;;;;;;;;;;10275562;28;20040;-67
2021/06/25 02:59:52;;;;;;;4.13;2.63;;;;;;;;;;10279843;28;20567;-67
2021/06/25 03:04:50;;;;;;;3.50;3.17;;;;;;;;;;10263737;28;20045;-66
2021/06/25 03:09:47;;;;;;;4.30;3.10;;;;;;;;;;10264732;28;20034;-67
2021/06/25 03:14:45;;;;;;;6.07;3.57;;;;;;;;;;10263689;28;20068;-67
2021/06/25 03:19:42;;;;;;;4.50;3.13;;;;;;;;;;10305090;28;20037;-66
2021/06/25 03:24:40;;;;;;;3.70;3.17;;;;;;;;;;10283027;28;20045;-66
2021/06/25 03:29:37;;;;;;;3.67;3.13;;;;;;;;;;10242693;28;20459;-67
2021/06/25 03:34:35;;;;;;;3.43;2.93;;;;;;;;;;10267262;28;20049;-67
2021/06/25 03:39:32;;;;;;;3.97;2.87;;;;;;;;;;10272232;28;20024;-67
2021/06/25 03:44:29;;;;;;;4.40;3.20;;;;;;;;;;10212260;28;20112;-66
2021/06/25 03:49:27;;;;;;;3.70;3.07;;;;;;;;;;10221045;28;20026;-67
2021/06/25 03:54:24;;;;;;;5.77;3.43;;;;;;;;;;10220762;28;20046;-67
2021/06/25 03:59:22;;;;;;;4.63;3.40;;;;;;;;;;10246323;28;20515;-66
2021/06/25 04:04:19;;;;;;;3.90;3.50;;;;;;;;;;10263393;28;20441;-67
2021/06/25 04:09:17;;;;;;;3.70;3.03;;;;;;;;;;10245043;28;20042;-66
2021/06/25 04:14:15;;;;;;;3.53;3.23;;;;;;;;;;10260912;28;20061;-66
2021/06/25 04:19:12;;;;;;;7.30;3.87;;;;;;;;;;10280442;28;20030;-67
2021/06/25 04:24:10;;;;;;;6.77;3.53;;;;;;;;;;10267661;28;20075;-67
2021/06/25 04:29:09;;;;;;;4.57;3.20;;;;;;;;;;10259106;28;20033;-67
2021/06/25 04:34:07;;;;;;;4.15;3.10;;;;;;;;;;10259206;28;20121;-67
2021/06/25 04:39:05;;;;;;;4.90;3.13;;;;;;;;;;10259197;28;20109;-67
2021/06/25 04:44:03;;;;;;;4.40;3.47;;;;;;;;;;10255133;28;20033;-66
2021/06/25 04:49:00;;;;;;;4.00;3.23;;;;;;;;;;10225518;28;20026;-67
2021/06/25 04:53:58;;;;;;;3.80;3.07;;;;;;;;;;10253512;28;20125;-66
2021/06/25 04:58:55;;;;;;;7.40;5.97;;;;;;;;;;10239622;28;20557;-66
2021/06/25 05:03:53;;;;;;;8.90;7.07;;;;;;;;;;10238755;28;20499;-66
2021/06/25 05:08:50;;;;;;;7.30;6.33;;;;;;;;;;10238967;28;20049;-66
2021/06/25 05:13:48;;;;;;;9.67;5.70;;;;;;;;;;10234227;28;20038;-66
2021/06/25 05:18:45;;;;;;;9.57;7.43;;;;;;;;;;10238319;28;20034;-66
2021/06/25 05:23:43;;;;;;;6.43;4.87;;;;;;;;;;10239718;28;20041;-66
2021/06/25 05:28:40;;;;;;;7.07;4.30;;;;;;;;;;10241786;28;20030;-66
2021/06/25 05:33:38;;;;;;;6.70;5.13;;;;;;;;;;10246985;28;20464;-65
2021/06/25 05:38:35;;;;;;;6.27;4.33;;;;;;;;;;10242326;28;20121;-66
2021/06/25 05:43:32;;;;;;;7.33;4.60;;;;;;;;;;10233173;28;20086;-67
2021/06/25 05:48:30;;;;;;;5.20;3.67;;;;;;;;;;10251614;28;20081;-67
2021/06/25 05:53:30;;;;;;;4.37;3.50;;;;;;;;;;10255911;28;20814;-67
2021/06/25 05:58:27;;;;;;;7.53;3.55;;;;;;;;;;10238105;28;20041;-66
2021/06/25 06:03:25;;;;;;;5.40;3.10;;;;;;;;;;10245067;28;20042;-67
2021/06/25 06:08:22;;;;;;;3.93;3.03;;;;;;;;;;10243783;28;20064;-68
2021/06/25 06:13:20;;;;;;;3.43;3.00;;;;;;;;;;10228819;28;20140;-67
2021/06/25 06:18:18;;;;;;;4.53;3.90;;;;;;;;;;10246037;28;20270;-67
2021/06/25 06:38:46;;;;;;;2.92;2.35;;;;;;;;;;10248749;28;20045;-67
2021/06/25 06:43:44;;;;;;;4.70;2.47;;;;;;;;;;10239020;28;20041;-67
2021/06/25 06:48:43;;;;;;;2.17;1.98;;;;;;;;;;10250169;28;20109;-68
2021/06/25 06:53:45;;;;;;;2.58;1.70;;;;;;;;;;10246002;28;20313;-67
2021/06/25 06:58:42;;;;;;;3.58;2.10;;;;;;;;;;10229491;28;20038;-68
2021/06/25 07:03:40;;;;;;;3.13;2.20;;;;;;;;;;10224247;28;20030;-67
2021/06/25 07:08:38;;;;;;;3.70;2.20;;;;;;;;;;10227685;28;20424;-67
2021/06/25 07:13:36;;;;;;;2.63;2.03;;;;;;;;;;10236449;28;20034;-68
2021/06/25 07:18:33;;;;;;;2.28;1.63;;;;;;;;;;10242387;28;20030;-66
2021/06/25 07:23:31;;;;;;;2.25;1.70;;;;;;;;;;10236152;28;20316;-66
2021/06/25 07:28:28;;;;;;;2.40;1.70;;;;;;;;;;10241208;28;20065;-66
2021/06/25 07:33:25;;;;;;;2.77;1.60;;;;;;;;;;10248698;28;20042;-65
2021/06/25 07:38:23;;;;;;;2.27;1.90;;;;;;;;;;10230641;28;20292;-66
2021/06/25 07:43:21;;;;;;;3.00;1.70;;;;;;;;;;10235875;28;20335;-66
2021/06/25 07:48:18;;;;;;;;;;;;;;;;;;10240385;28;20138;-66
2021/06/25 07:53:15;;;;;;;2.60;1.50;;;;;;;;;;10227811;28;19917;-66
2021/06/25 07:58:13;;;;;;;;;;;;;;;;;;10238756;28;20062;-66
2021/06/25 08:03:10;;;;;;;3.15;1.80;;;;;;;;;;10237799;28;19933;-66
2021/06/25 08:08:08;;;;;;;2.42;1.50;;;;;;;;;;10242888;28;20112;-66
2021/06/25 08:13:06;;;;;;;1.30;1.20;;;;;;;;;;10235167;28;20034;-66
2021/06/25 08:18:03;;;;;;;2.97;1.40;;;;;;;;;;10239110;28;20120;-65
2021/06/25 08:23:01;;;;;;;3.42;2.22;;;;;;;;;;10254426;28;20045;-67
2021/06/25 08:27:59;;;;;;;1.98;1.75;;;;;;;;;;10232274;28;20100;-67
2021/06/25 08:32:56;;;;;;;2.38;1.63;;;;;;;;;;10225517;28;20478;-66
2021/06/25 08:37:54;;;;;;;2.50;1.47;;;;;;;;;;10240805;28;20041;-66
2021/06/25 08:42:51;;;;;;;2.05;1.50;;;;;;;;;;10226125;28;20324;-67
2021/06/25 08:47:50;;;;;;;2.38;1.60;;;;;;;;;;10238356;28;20032;-67
2021/06/25 08:52:49;;;;;;;3.70;1.60;;;;;;;;;;10236184;28;20052;-67
2021/06/25 08:57:46;;;;;;;2.10;1.40;;;;;;;;;;10235899;28;20532;-68
2021/06/25 09:02:44;;;;;;;1.58;1.10;;;;;;;;;;10234914;28;20424;-68
2021/06/25 09:07:43;;;;;;;4.10;1.75;;;;;;;;;;10232850;28;20034;-68
2021/06/25 09:12:56;;;;;;;1.95;1.52;;;;;;;;;;10225790;28;20512;-67
2021/06/25 09:17:54;;;;;;;3.42;2.70;;;;;;;;;;10228553;28;20030;-68
2021/06/25 09:22:52;;;;;;;1.90;1.17;;;;;;;;;;10249124;28;20113;-67
2021/06/25 09:27:56;;;;;;;2.72;1.10;;;;;;;;;;10233700;28;20114;-67
2021/06/25 09:32:55;;;;;;;2.30;1.10;;;;;;;;;;10234557;28;20133;-67
2021/06/25 09:37:53;;;;;;;1.10;1.00;;;;;;;;;;10244755;28;20034;-68
2021/06/25 09:43:09;;;;;;;1.15;0.93;;;;;;;;;;10238790;28;20157;-68
2021/06/25 09:48:07;;;;;;;0.80;0.80;;;;;;;;;;10234333;28;20081;-67
2021/06/25 09:53:05;;;;;;;2.97;1.10;;;;;;;;;;10241661;28;20065;-66
2021/06/25 10:03:13;;;;;;;1.27;1.00;;;;;;;;;;10240945;28;20416;-67
2021/06/25 10:08:10;;;;;;;0.73;0.73;;;;;;;;;;10245587;28;20045;-67
2021/06/25 10:13:09;;;;;;;0.80;0.80;;;;;;;;;;10241272;28;20259;-67
2021/06/25 10:18:06;;;;;;;1.52;1.13;;;;;;;;;;10243904;28;20335;-67
2021/06/25 10:23:07;;;;;;;1.77;1.00;;;;;;;;;;10238647;28;20035;-67
2021/06/25 10:28:05;;;;;;;2.53;1.60;;;;;;;;;;10236222;28;20455;-68
2021/06/25 10:33:03;;;;;;;0.70;0.70;;;;;;;;;;10237794;28;20416;-67
2021/06/25 10:38:00;;;;;;;2.00;1.00;;;;;;;;;;10240156;28;20038;-67
2021/06/25 10:43:00;;;;;;;1.57;1.10;;;;;;;;;;10236400;28;20034;-65
2021/06/25 10:47:58;;;;;;;2.33;1.17;;;;;;;;;;10242036;28;20292;-66
2021/06/25 10:53:06;;;;;;;1.50;1.30;;;;;;;;;;10240950;28;20137;-67
2021/06/25 10:58:04;;;;;;;2.15;1.10;;;;;;;;;;10241070;28;20180;-66
2021/06/25 11:03:01;;;;;;;2.27;1.33;;;;;;;;;;10226218;28;20160;-66
2021/06/25 11:08:14;;;;;;;3.42;1.30;;;;;;;;;;10258828;28;20034;-66
2021/06/25 11:13:11;;;;;;;2.00;1.33;;;;;;;;;;10225564;28;20133;-66
2021/06/25 11:18:15;;;;;;;1.53;0.97;;;;;;;;;;10242154;28;20113;-66
2021/06/25 11:23:15;;;;;;;1.83;1.23;;;;;;;;;;10239603;28;20046;-66
2021/06/25 11:28:25;;;;;;;1.40;1.13;;;;;;;;;;10234832;28;20046;-66
2021/06/25 11:33:23;;;;;;;2.13;1.85;;;;;;;;;;10244803;28;20064;-67
2021/06/25 11:38:57;;;;;;;2.65;1.30;;;;;;;;;;10254825;28;20400;-67
2021/06/25 11:43:55;;;;;;;1.25;1.15;;;;;;;;;;10160869;28;20034;-68
2021/06/25 11:49:03;;;;;;;1.98;1.48;;;;;;;;;;10257217;28;20083;-67
2021/06/25 11:54:02;;;;;;;2.67;1.38;;;;;;;;;;10246652;28;20099;-66
2021/06/25 11:59:01;;;;;;;1.60;1.45;;;;;;;;;;10236165;28;20388;-66
2021/06/25 12:03:59;;;;;;;1.58;1.48;;;;;;;;;;10229528;28;20028;-67
2021/06/25 12:09:00;;;;;;;2.10;1.50;;;;;;;;;;10245624;28;20148;-67
2021/06/25 12:14:04;;;;;;;1.52;1.30;;;;;;;;;;10240609;28;20160;-67
2021/06/25 12:19:02;;;;;;;1.10;0.95;;;;;;;;;;10233391;28;20124;-67
2021/06/25 12:23:59;;;;;;;1.83;1.10;;;;;;;;;;10243065;28;20120;-66
2021/06/25 12:29:01;;;;;;;1.27;1.17;;;;;;;;;;10243971;28;20042;-67
2021/06/25 12:34:16;;;;;;;1.20;1.10;;;;;;;;;;10231105;28;20416;-67
2021/06/25 12:39:17;;;;;;;1.67;1.10;;;;;;;;;;10250382;28;20036;-67
2021/06/25 12:44:21;;;;;;;1.40;1.10;;;;;;;;;;10237733;28;20065;-67
2021/06/25 12:49:19;;;;;;;1.83;0.90;;;;;;;;;;10229966;28;20454;-68
2021/06/25 12:54:16;;;;;;;1.37;1.27;;;;;;;;;;10255022;28;20132;-68
2021/06/25 12:59:20;;;;;;;1.00;1.00;;;;;;;;;;10250463;28;20805;-68
2021/06/25 13:04:24;;;;;;;1.60;1.30;;;;;;;;;;10238030;28;20053;-68
2021/06/25 13:09:25;;;;;;;1.45;1.00;;;;;;;;;;10235084;28;20034;-69
2021/06/25 13:14:30;;;;;;;1.20;1.10;;;;;;;;;;10229952;28;20576;-68
2021/06/25 13:19:30;;;;;;;1.92;1.02;;;;;;;;;;10239619;28;20042;-66
2021/06/25 13:24:47;;;;;;;1.00;1.00;;;;;;;;;;10240712;28;20306;-66
2021/06/25 13:29:45;;;;;;;;;;;;;;;;;;10241374;28;20049;-67
2021/06/25 13:34:53;;;;;;;1.08;0.98;;;;;;;;;;10250190;28;19916;-67
2021/06/25 13:39:52;;;;;;;1.30;1.00;;;;;;;;;;10248243;28;20556;-67
2021/06/25 13:44:49;;;;;;;1.67;1.27;;;;;;;;;;10240365;28;20899;-67
2021/06/25 13:49:56;;;;;;;1.00;1.00;;;;;;;;;;10238296;28;20385;-67
2021/06/25 13:55:09;;;;;;;1.20;1.00;;;;;;;;;;10228765;28;20023;-67
2021/06/25 14:00:25;;;;;;;1.70;1.05;;;;;;;;;;10249380;28;20420;-67
2021/06/25 14:05:23;;;;;;;1.30;1.20;;;;;;;;;;10236833;28;20715;-68
2021/06/25 14:10:20;;;;;;;1.10;0.97;;;;;;;;;;10249051;28;20046;-68
2021/06/25 14:15:18;;;;;;;1.00;1.00;;;;;;;;;;10256163;28;20515;-67
2021/06/25 14:20:19;;;;;;;2.47;1.20;;;;;;;;;;10241158;28;20034;-67
2021/06/25 14:25:16;;;;;;;2.10;1.27;;;;;;;;;;10238166;28;20038;-67
2021/06/25 14:30:14;;;;;;;1.23;0.93;;;;;;;;;;10258473;28;20052;-67
2021/06/25 14:35:13;;;;;;;1.90;1.33;;;;;;;;;;10251609;28;20292;-67
2021/06/25 14:40:11;;;;;;;0.98;0.88;;;;;;;;;;10250675;28;20037;-68
2021/06/25 14:45:10;;;;;;;1.00;1.00;;;;;;;;;;10255965;28;20080;-67
2021/06/25 14:50:08;;;;;;;1.65;0.90;;;;;;;;;;10263120;28;20034;-68
2021/06/25 14:55:06;;;;;;;1.13;1.05;;;;;;;;;;10250896;28;20038;-68
2021/06/25 15:00:06;;;;;;;0.95;0.93;;;;;;;;;;10241248;28;20036;-68
2021/06/25 15:05:05;;;;;;;1.35;1.08;;;;;;;;;;10260454;28;20069;-68
2021/06/25 15:10:03;;;;;;;1.10;1.00;;;;;;;;;;10261777;28;20447;-68
2021/06/25 15:15:01;;;;;;;1.95;1.20;;;;;;;;;;10257213;28;20038;-68
2021/06/25 15:20:00;;;;;;;1.15;1.05;;;;;;;;;;10283420;28;20037;-68
2021/06/25 15:24:58;;;;;;;0.90;0.90;;;;;;;;;;10269763;28;20459;-68
2021/06/25 15:29:55;;;;;;;1.57;0.97;;;;;;;;;;10281485;28;21548;-68
2021/06/25 15:34:53;;;;;;;1.10;1.00;;;;;;;;;;10271080;28;20117;-68
2021/06/25 15:39:50;;;;;;;1.58;0.98;;;;;;;;;;10269420;28;20396;-66
2021/06/25 15:44:48;;;;;;;1.17;0.90;;;;;;;;;;10271022;28;20048;-67
2021/06/25 15:49:45;;;;;;;1.80;1.10;;;;;;;;;;10257837;28;20014;-67
2021/06/25 15:54:43;;;;;;;1.10;1.00;;;;;;;;;;10271595;28;20049;-67
2021/06/25 15:59:40;;;;;;;1.23;1.13;;;;;;;;;;10275266;28;20041;-66
2021/06/25 16:04:38;;;;;;;3.10;1.10;;;;;;;;;;10261957;28;20030;-70
2021/06/25 16:14:33;;;;;;;1.13;1.03;;;;;;;;;;10264221;28;20120;-67
2021/06/25 16:19:30;;;;;;;1.35;1.25;;;;;;;;;;10255581;28;20046;-66
2021/06/25 16:24:28;;;;;;;1.60;1.10;;;;;;;;;;10249135;28;20038;-66
2021/06/25 16:29:25;;;;;;;1.20;1.10;;;;;;;;;;10243421;28;20611;-66
2021/06/25 16:34:23;;;;;;;1.38;1.27;;;;;;;;;;10268898;28;20466;-66
2021/06/25 16:39:20;;;;;;;1.30;1.20;;;;;;;;;;10244661;28;20038;-66
2021/06/25 16:44:18;;;;;;;1.48;1.30;;;;;;;;;;10258204;28;20356;-66
2021/06/25 16:49:16;;;;;;;1.42;1.33;;;;;;;;;;10262730;28;20105;-67
2021/06/25 16:54:13;;;;;;;1.27;1.17;;;;;;;;;;10247563;28;20050;-68
2021/06/25 16:59:11;;;;;;;1.33;1.23;;;;;;;;;;10257939;28;20481;-67
2021/06/25 17:04:08;;;;;;;3.10;1.60;;;;;;;;;;10262909;28;20044;-67
2021/06/25 17:09:06;;;;;;;1.30;1.20;;;;;;;;;;10281398;28;20644;-67
2021/06/25 17:14:03;;;;;;;2.43;1.30;;;;;;;;;;10273128;28;20635;-67
2021/06/25 17:19:01;;;;;;;1.33;1.10;;;;;;;;;;10258835;28;20356;-67
2021/06/25 17:23:59;;;;;;;1.25;1.10;;;;;;;;;;10259224;28;20034;-67
2021/06/25 17:28:57;;;;;;;2.33;1.40;;;;;;;;;;10231263;28;20568;-66
2021/06/25 17:33:57;;;;;;;1.70;1.35;;;;;;;;;;10272568;28;20030;-67
2021/06/25 17:38:55;;;;;;;1.70;1.30;;;;;;;;;;10251011;28;20493;-67
2021/06/25 17:43:52;;;;;;;1.80;1.60;;;;;;;;;;10270947;28;20447;-67
2021/06/25 17:48:50;;;;;;;1.40;1.27;;;;;;;;;;10269744;28;20036;-67
2021/06/25 17:53:47;;;;;;;1.63;1.40;;;;;;;;;;10232577;28;20038;-67
2021/06/25 17:58:45;;;;;;;1.27;1.27;;;;;;;;;;10248710;28;20052;-67
2021/06/25 18:03:42;;;;;;;1.57;1.47;;;;;;;;;;10268604;28;20050;-66
2021/06/25 18:08:40;;;;;;;1.50;1.40;;;;;;;;;;10269239;28;20787;-67
2021/06/25 18:13:37;;;;;;;1.47;1.43;;;;;;;;;;10276979;28;20109;-67
2021/06/25 18:18:37;;;;;;;1.63;1.52;;;;;;;;;;10236203;28;20057;-67
2021/06/25 18:23:35;;;;;;;2.25;1.45;;;;;;;;;;10288293;28;20500;-66
2021/06/25 18:28:33;;;;;;;1.70;1.60;;;;;;;;;;10265785;28;20466;-66
2021/06/25 18:33:30;;;;;;;1.77;1.60;;;;;;;;;;10266645;28;20133;-66
2021/06/25 18:38:28;;;;;;;1.83;1.73;;;;;;;;;;10265272;28;20088;-66
2021/06/25 18:43:26;;;;;;;2.22;1.70;;;;;;;;;;10266405;28;20550;-66
2021/06/25 18:48:23;;;;;;;2.20;1.70;;;;;;;;;;10297942;28;20124;-66
2021/06/25 18:53:21;;;;;;;1.70;1.60;;;;;;;;;;10262020;28;20117;-66
2021/06/25 18:58:18;;;;;;;1.77;1.67;;;;;;;;;;10265697;28;20338;-66
2021/06/25 19:03:16;;;;;;;1.58;1.48;;;;;;;;;;10265864;28;20300;-66
2021/06/25 19:08:13;;;;;;;1.83;1.70;;;;;;;;;;10265783;28;20034;-66
2021/06/25 19:13:11;;;;;;;1.90;1.80;;;;;;;;;;10265497;28;20078;-66
2021/06/25 19:18:09;;;;;;;1.70;1.60;;;;;;;;;;10265094;28;20299;-66
2021/06/25 19:23:08;;;;;;;1.80;1.70;;;;;;;;;;10262857;28;20061;-66
2021/06/25 19:28:06;;;;;;;2.33;1.80;;;;;;;;;;10262377;28;20049;-65
2021/06/25 19:33:04;;;;;;;1.80;1.70;;;;;;;;;;10262961;28;20042;-65
2021/06/25 19:38:02;;;;;;;1.63;1.52;;;;;;;;;;10264297;28;20536;-65
2021/06/25 19:43:00;;;;;;;1.23;1.20;;;;;;;;;;10263857;28;20504;-66
2021/06/25 19:47:57;;;;;;;2.20;1.45;;;;;;;;;;10262947;28;20037;-64
2021/06/25 19:52:55;;;;;;;1.90;1.80;;;;;;;;;;10264605;28;20528;-65
2021/06/25 19:57:52;;;;;;;1.50;1.40;;;;;;;;;;10263377;28;20053;-68
2021/06/25 20:02:50;;;;;;;1.67;1.58;;;;;;;;;;10261617;28;20045;-66
2021/06/25 20:07:47;;;;;;;1.65;1.55;;;;;;;;;;10261528;28;20030;-66
2021/06/25 20:12:45;;;;;;;1.13;1.13;;;;;;;;;;10261683;28;20038;-66
2021/06/25 20:17:43;;;;;;;1.63;1.52;;;;;;;;;;10263029;28;20041;-66
2021/06/25 20:22:40;;;;;;;1.50;1.40;;;;;;;;;;10262057;28;20072;-66
2021/06/25 20:27:38;;;;;;;1.60;1.52;;;;;;;;;;10282019;28;20038;-66
2021/06/25 20:32:36;;;;;;;1.20;1.20;;;;;;;;;;10303102;28;20041;-65
2021/06/25 20:37:34;;;;;;;1.52;1.42;;;;;;;;;;10302467;28;20212;-65
2021/06/25 20:42:31;;;;;;;1.73;1.52;;;;;;;;;;10302734;28;20044;-65
2021/06/25 20:47:28;;;;;;;1.53;1.43;;;;;;;;;;10302814;28;20220;-66
2021/06/25 20:52:26;;;;;;;1.80;1.63;;;;;;;;;;10302658;28;20786;-65
2021/06/25 20:57:23;;;;;;;3.90;1.40;;;;;;;;;;10290324;28;20052;-65
2021/06/25 21:02:21;;;;;;;1.52;1.42;;;;;;;;;;10261799;28;20843;-65
2021/06/25 21:07:20;;;;;;;1.50;1.40;;;;;;;;;;10261991;28;20088;-65
2021/06/25 21:12:17;;;;;;;1.70;1.60;;;;;;;;;;10261903;28;20038;-65
2021/06/25 21:17:15;;;;;;;;;;;;;;;;;;10269036;28;20083;-66
2021/06/25 21:22:12;;;;;;;1.77;1.67;;;;;;;;;;10270281;28;19922;-65
2021/06/25 21:27:09;;;;;;;;;;;;;;;;;;10269994;28;20034;-66
2021/06/25 21:32:07;;;;;;;1.50;1.40;;;;;;;;;;10269747;28;19971;-65
2021/06/25 21:37:04;;;;;;;;;;;;;;;;;;10284717;28;20127;-65
2021/06/25 21:42:02;;;;;;;2.13;1.93;;;;;;;;;;10268241;28;19936;-65
2021/06/25 21:46:59;;;;;;;;;;;;;;;;;;10269336;28;20042;-64
2021/06/25 21:51:56;;;;;;;2.05;1.92;;;;;;;;;;10283275;28;19920;-65
2021/06/25 21:56:54;;;;;;;;;;;;;;;;;;10268163;28;20053;-65
2021/06/25 22:01:52;;;;;;;1.67;1.58;;;;;;;;;;10266956;28;20288;-65
2021/06/25 22:06:50;;;;;;;2.03;1.83;;;;;;;;;;10266850;28;20044;-65
2021/06/25 22:11:47;;;;;;;;;;;;;;;;;;10258713;28;20045;-65
2021/06/25 22:16:44;;;;;;;1.60;1.50;;;;;;;;;;10267318;28;19921;-66
2021/06/25 22:21:42;;;;;;;;;;;;;;;;;;10267862;28;20141;-66
2021/06/25 22:26:39;;;;;;;1.92;1.73;;;;;;;;;;10267252;28;19917;-66
2021/06/25 22:31:37;;;;;;;;;;;;;;;;;;10267242;28;20393;-66
2021/06/25 22:36:34;;;;;;;1.77;1.67;;;;;;;;;;10265452;28;19913;-66
2021/06/25 22:41:31;;;;;;;;;;;;;;;;;;10267660;28;20042;-66
2021/06/25 22:46:29;;;;;;;1.43;1.33;;;;;;;;;;10267500;28;19972;-64
2021/06/25 22:51:26;;;;;;;;;;;;;;;;;;10266353;28;20431;-66
2021/06/25 22:56:24;;;;;;;1.77;1.63;;;;;;;;;;10266330;28;19953;-66
2021/06/25 23:01:21;;;;;;;1.70;1.60;;;;;;;;;;10265491;28;20046;-66
2021/06/25 23:06:21;;;;;;;1.63;1.50;;;;;;;;;;10265426;28;20038;-66
2021/06/25 23:11:19;;;;;;;1.65;1.55;;;;;;;;;;10264200;28;20054;-66
2021/06/25 23:16:16;;;;;;;2.00;1.90;;;;;;;;;;10263842;28;20046;-66
2021/06/25 23:21:14;;;;;;;1.83;1.73;;;;;;;;;;10265180;28;20548;-66
2021/06/25 23:26:11;;;;;;;2.25;2.00;;;;;;;;;;10279891;28;20037;-66
2021/06/25 23:31:09;;;;;;;1.70;1.60;;;;;;;;;;10262535;28;20341;-66
2021/06/25 23:36:06;;;;;;;3.03;1.80;;;;;;;;;;10262924;28;20631;-66
2021/06/25 23:41:04;;;;;;;1.85;1.73;;;;;;;;;;10263199;28;20099;-67
2021/06/25 23:46:02;;;;;;;1.70;1.60;;;;;;;;;;10262235;28;20125;-64
2021/06/25 23:50:59;;;;;;;2.20;2.10;;;;;;;;;;10257971;28;20117;-64
2021/06/25 23:55:57;;;;;;;2.10;1.90;;;;;;;;;;10261151;28;20042;-64
